Time;durP1;ratioP1;P1;durP2;ratioP2;P2;SDS_P1;SDS_P2;PMS_P1;PMS_P2;Temp;Humidity;BMP_temperature;BMP_pressure;BME280_temperature;BME280_humidity;BME280_pressure;Samples;Min_cycle;Max_cycle;Signal;HPM_P1;HPM_P2
2021/07/05 00:01:43;;;;;;;1.30;1.10;;;16.00;99.90;;;;;;5045966;28;20987;-92
2021/07/05 00:04:12;;;;;;;1.10;1.00;;;16.10;99.90;;;;;;5049216;28;21272;-92
2021/07/05 00:06:39;;;;;;;2.50;1.13;;;16.10;99.90;;;;;;5046275;28;21272;-92
2021/07/05 00:09:06;;;;;;;3.20;0.90;;;16.10;99.90;;;;;;5043762;28;20617;-91
2021/07/05 00:11:33;;;;;;;1.07;0.87;;;16.10;99.90;;;;;;5049561;28;20654;-93
2021/07/05 00:14:01;;;;;;;4.80;0.90;;;16.10;99.90;;;;;;5050351;28;20727;-95
2021/07/05 00:16:28;;;;;;;3.40;1.00;;;16.10;99.90;;;;;;5045595;28;20634;-95
2021/07/05 00:18:55;;;;;;;1.37;1.10;;;16.10;99.90;;;;;;5047628;28;21063;-93
2021/07/05 00:21:23;;;;;;;2.00;1.00;;;16.20;99.90;;;;;;5047952;28;21220;-93
2021/07/05 00:23:50;;;;;;;1.60;1.00;;;16.10;99.90;;;;;;5044871;28;20665;-94
2021/07/05 00:26:17;;;;;;;1.20;0.97;;;16.10;99.90;;;;;;5044318;28;20700;-93
2021/07/05 00:28:45;;;;;;;1.40;0.90;;;16.20;99.90;;;;;;5048644;28;20622;-91
2021/07/05 00:31:12;;;;;;;4.00;0.83;;;16.20;99.90;;;;;;5047162;28;20673;-93
2021/07/05 00:33:39;;;;;;;1.00;0.90;;;16.20;99.90;;;;;;5044556;28;20631;-91
2021/07/05 00:36:06;;;;;;;1.97;0.90;;;16.20;99.90;;;;;;5042511;28;20633;-91
2021/07/05 00:38:34;;;;;;;1.03;0.80;;;16.20;99.90;;;;;;5044399;28;20627;-93
2021/07/05 00:41:01;;;;;;;1.20;1.03;;;16.20;99.90;;;;;;5044742;28;21054;-93
2021/07/05 00:43:29;;;;;;;1.10;0.90;;;16.20;99.90;;;;;;5049333;28;20670;-93
2021/07/05 00:45:57;;;;;;;3.83;2.47;;;16.20;99.90;;;;;;5048544;28;20673;-93
2021/07/05 00:48:24;;;;;;;1.60;1.50;;;16.20;99.90;;;;;;5046652;28;20642;-92
2021/07/05 00:50:51;;;;;;;1.50;1.20;;;16.30;99.90;;;;;;5048443;28;20621;-93
2021/07/05 00:53:18;;;;;;;2.20;1.37;;;16.30;99.90;;;;;;5048714;28;20610;-92
2021/07/05 00:55:56;;;;;;;1.40;1.30;;;16.20;99.90;;;;;;5047731;28;20626;-92
2021/07/05 00:58:23;;;;;;;3.43;1.37;;;16.20;99.90;;;;;;5051543;28;21305;-93
2021/07/05 01:00:50;;;;;;;1.90;1.17;;;16.10;99.90;;;;;;5047686;28;20633;-93
2021/07/05 01:03:17;;;;;;;1.47;0.90;;;16.10;99.90;;;;;;5049121;28;20610;-91
2021/07/05 01:05:44;;;;;;;1.17;1.07;;;16.20;99.90;;;;;;5058656;28;20660;-92
2021/07/05 01:08:11;;;;;;;1.67;1.10;;;16.20;99.90;;;;;;5066972;28;20626;-94
2021/07/05 01:10:38;;;;;;;2.57;1.00;;;16.20;99.90;;;;;;5063528;28;20704;-93
2021/07/05 01:13:06;;;;;;;2.30;0.80;;;16.20;99.90;;;;;;5049512;28;20631;-92
2021/07/05 01:15:34;;;;;;;1.47;0.80;;;16.20;99.90;;;;;;5053433;28;20629;-92
2021/07/05 01:18:04;;;;;;;4.80;1.27;;;16.20;99.90;;;;;;5047409;28;20649;-92
2021/07/05 01:20:33;;;;;;;1.50;1.07;;;16.20;99.90;;;;;;5046907;28;20629;-93
2021/07/05 01:23:02;;;;;;;1.00;0.90;;;16.20;99.90;;;;;;5051039;28;21335;-93
2021/07/05 01:25:32;;;;;;;1.87;0.87;;;16.20;99.90;;;;;;5047556;28;20669;-93
2021/07/05 01:28:00;;;;;;;0.97;0.87;;;16.10;99.90;;;;;;5050343;28;20686;-95
2021/07/05 01:30:28;;;;;;;1.07;0.80;;;16.10;99.90;;;;;;5046181;28;20630;-93
2021/07/05 01:32:57;;;;;;;1.57;0.90;;;16.10;99.90;;;;;;5045501;28;20670;-92
2021/07/05 01:35:24;;;;;;;3.97;1.20;;;16.10;99.90;;;;;;5050439;28;21533;-92
2021/07/05 01:37:51;;;;;;;1.80;0.80;;;16.10;99.90;;;;;;5048532;28;20661;-93
2021/07/05 01:40:19;;;;;;;1.83;1.27;;;16.20;99.90;;;;;;5051526;28;20618;-93
2021/07/05 01:42:50;;;;;;;1.27;1.17;;;16.20;99.90;;;;;;5051609;28;20637;-93
2021/07/05 01:45:17;;;;;;;2.30;0.90;;;16.20;99.90;;;;;;5049274;28;20673;-92
2021/07/05 01:47:45;;;;;;;1.27;0.73;;;16.20;99.90;;;;;;5048822;28;20666;-93
2021/07/05 01:50:13;;;;;;;1.73;1.00;;;16.20;99.90;;;;;;5050531;28;20630;-93
2021/07/05 01:52:40;;;;;;;3.43;0.90;;;16.20;99.90;;;;;;5044665;28;20752;-93
2021/07/05 01:55:09;;;;;;;1.60;1.17;;;16.30;99.90;;;;;;5050527;28;20767;-93
2021/07/05 01:57:38;;;;;;;1.10;1.00;;;16.30;99.90;;;;;;5048611;28;20679;-93
2021/07/05 02:00:10;;;;;;;0.93;0.87;;;16.30;99.90;;;;;;5052030;28;20620;-92
2021/07/05 02:02:36;;;;;;;1.30;1.20;;;16.30;99.90;;;;;;5052803;28;20618;-92
2021/07/05 02:05:07;;;;;;;3.83;1.03;;;16.20;99.90;;;;;;5048807;28;20664;-92
2021/07/05 02:07:36;;;;;;;0.80;0.73;;;16.20;99.90;;;;;;5050800;28;20658;-92
2021/07/05 02:10:06;;;;;;;3.30;1.00;;;16.20;99.90;;;;;;5057956;28;20668;-92
2021/07/05 02:12:33;;;;;;;6.30;1.40;;;16.10;99.90;;;;;;5066527;28;20621;-92
2021/07/05 02:15:01;;;;;;;3.90;1.27;;;16.10;99.90;;;;;;5069484;28;20670;-93
2021/07/05 02:17:28;;;;;;;1.37;1.27;;;16.10;99.90;;;;;;5072245;28;20651;-93
2021/07/05 02:19:55;;;;;;;2.40;1.50;;;16.00;99.90;;;;;;5069910;28;20669;-92
2021/07/05 02:22:22;;;;;;;1.57;1.10;;;16.00;99.90;;;;;;5070645;28;20614;-91
2021/07/05 02:24:49;;;;;;;0.97;0.90;;;16.10;99.90;;;;;;5047125;28;20717;-92
2021/07/05 02:27:16;;;;;;;1.60;1.43;;;16.10;99.90;;;;;;5049221;28;20650;-92
2021/07/05 02:29:42;;;;;;;1.53;1.43;;;16.10;99.90;;;;;;5046630;28;20633;-92
2021/07/05 02:32:11;;;;;;;2.20;1.27;;;16.00;99.90;;;;;;5049408;28;20617;-92
2021/07/05 02:34:37;;;;;;;1.60;1.20;;;16.10;99.90;;;;;;5051708;28;20625;-92
2021/07/05 02:37:04;;;;;;;1.33;1.23;;;16.10;99.90;;;;;;5069347;28;20689;-93
2021/07/05 02:39:31;;;;;;;1.10;1.00;;;16.00;99.90;;;;;;5065094;28;20646;-92
2021/07/05 02:41:59;;;;;;;1.30;1.10;;;16.10;99.90;;;;;;5062552;28;20606;-93
2021/07/05 02:44:26;;;;;;;1.23;1.13;;;16.00;99.90;;;;;;5046390;28;20685;-93
2021/07/05 02:46:53;;;;;;;1.60;1.23;;;16.00;99.90;;;;;;5044579;28;21051;-92
2021/07/05 02:49:21;;;;;;;2.67;0.87;;;16.00;99.90;;;;;;5044417;28;20634;-93
2021/07/05 02:51:48;;;;;;;1.83;1.10;;;15.90;99.90;;;;;;5049670;28;20628;-92
2021/07/05 02:54:16;;;;;;;2.33;1.07;;;16.00;99.90;;;;;;5050297;28;21023;-92
2021/07/05 02:56:42;;;;;;;3.60;1.80;;;16.00;99.90;;;;;;5049237;28;20648;-92
2021/07/05 02:59:09;;;;;;;1.40;1.30;;;16.10;99.90;;;;;;5043372;28;20622;-93
2021/07/05 03:01:36;;;;;;;3.10;1.30;;;16.10;99.90;;;;;;5048609;28;20657;-92
2021/07/05 03:04:03;;;;;;;1.30;1.20;;;16.10;99.90;;;;;;5050512;28;20638;-92
2021/07/05 03:06:34;;;;;;;1.53;1.40;;;16.20;99.90;;;;;;5049002;28;20674;-93
2021/07/05 03:09:01;;;;;;;1.70;1.27;;;16.10;99.90;;;;;;5066890;28;20703;-92
2021/07/05 03:11:28;;;;;;;4.10;1.30;;;16.10;99.90;;;;;;5065231;28;20646;-92
2021/07/05 03:13:54;;;;;;;3.10;1.30;;;16.10;99.90;;;;;;5044446;28;20644;-91
2021/07/05 03:16:21;;;;;;;2.90;1.20;;;16.20;99.90;;;;;;5041942;28;20657;-91
2021/07/05 03:18:48;;;;;;;1.93;1.40;;;16.20;99.90;;;;;;5044930;28;20634;-92
2021/07/05 03:21:15;;;;;;;2.90;1.20;;;16.10;99.90;;;;;;5040626;28;21049;-94
2021/07/05 03:23:43;;;;;;;2.00;0.93;;;16.10;99.90;;;;;;5048735;28;20636;-93
2021/07/05 03:26:10;;;;;;;1.53;1.20;;;16.10;99.90;;;;;;5044129;28;20658;-93
2021/07/05 03:28:37;;;;;;;1.47;1.17;;;16.10;99.90;;;;;;5041778;28;20646;-93
2021/07/05 03:31:04;;;;;;;6.20;1.33;;;16.10;99.90;;;;;;5048272;28;20668;-92
2021/07/05 03:33:31;;;;;;;4.00;0.93;;;16.10;99.90;;;;;;5048677;28;21006;-93
2021/07/05 03:35:58;;;;;;;1.50;1.10;;;16.10;99.90;;;;;;5041255;28;20645;-94
2021/07/05 03:38:25;;;;;;;2.43;1.20;;;16.10;99.90;;;;;;5042052;28;20641;-92
2021/07/05 03:40:53;;;;;;;1.80;0.93;;;16.10;99.90;;;;;;5044898;28;20634;-92
2021/07/05 03:43:20;;;;;;;4.40;1.20;;;16.10;99.90;;;;;;5050401;28;20704;-91
2021/07/05 03:45:47;;;;;;;1.40;1.20;;;16.10;99.90;;;;;;5043120;28;20667;-92
2021/07/05 03:48:14;;;;;;;2.00;1.60;;;16.20;99.90;;;;;;5048986;28;20638;-94
2021/07/05 03:50:41;;;;;;;1.93;1.20;;;16.20;99.90;;;;;;5045854;28;20990;-94
2021/07/05 03:53:11;;;;;;;1.53;1.43;;;16.10;99.90;;;;;;5045831;28;20637;-93
2021/07/05 03:55:39;;;;;;;2.30;1.13;;;16.10;99.90;;;;;;5053491;28;21044;-94
2021/07/05 03:58:08;;;;;;;2.20;1.53;;;16.10;99.90;;;;;;5051975;28;21353;-92
2021/07/05 04:00:37;;;;;;;2.07;1.10;;;16.10;99.90;;;;;;5052601;28;20634;-94
2021/07/05 04:03:04;;;;;;;2.40;1.30;;;16.10;99.90;;;;;;5050183;28;21069;-93
2021/07/05 04:05:31;;;;;;;1.70;1.17;;;16.10;99.90;;;;;;5047758;28;20648;-93
2021/07/05 04:08:02;;;;;;;6.20;1.77;;;16.10;99.90;;;;;;5046193;28;21104;-93
2021/07/05 04:10:30;;;;;;;2.47;1.43;;;16.10;99.90;;;;;;5050389;28;20687;-93
2021/07/05 04:12:57;;;;;;;1.93;1.33;;;16.10;99.90;;;;;;5052894;28;20638;-93
2021/07/05 04:15:26;;;;;;;1.60;1.27;;;16.10;99.90;;;;;;5049456;28;21026;-90
2021/07/05 04:17:53;;;;;;;1.70;1.33;;;16.10;99.90;;;;;;5044563;28;21205;-90
2021/07/05 04:20:22;;;;;;;3.37;1.83;;;16.10;99.90;;;;;;5047985;28;20718;-91
2021/07/05 04:22:49;;;;;;;2.17;1.70;;;16.10;99.90;;;;;;5044322;28;20622;-90
2021/07/05 04:25:18;;;;;;;5.97;1.80;;;16.00;99.90;;;;;;5045898;28;20630;-91
2021/07/05 04:27:47;;;;;;;3.83;2.00;;;16.10;99.90;;;;;;5049135;28;20678;-91
2021/07/05 04:30:15;;;;;;;4.43;1.50;;;16.10;99.90;;;;;;5048979;28;20997;-91
2021/07/05 04:32:45;;;;;;;2.47;1.43;;;16.10;99.90;;;;;;5049780;28;21017;-91
2021/07/05 04:35:15;;;;;;;3.30;1.47;;;16.10;99.90;;;;;;5051682;28;20647;-91
2021/07/05 04:37:45;;;;;;;2.80;1.67;;;16.00;99.90;;;;;;5052721;28;20759;-91
2021/07/05 04:40:16;;;;;;;1.90;1.17;;;16.00;99.90;;;;;;5049109;28;20626;-91
2021/07/05 04:42:44;;;;;;;2.23;1.40;;;15.90;99.90;;;;;;5048115;28;20624;-92
2021/07/05 04:45:15;;;;;;;3.83;1.27;;;16.00;99.90;;;;;;5047629;28;20605;-91
2021/07/05 04:47:50;;;;;;;5.33;1.90;;;16.10;99.90;;;;;;5050320;28;20673;-91
2021/07/05 04:50:19;;;;;;;3.17;1.90;;;16.10;99.90;;;;;;5046816;28;20640;-91
2021/07/05 04:52:46;;;;;;;1.73;1.20;;;16.10;99.90;;;;;;5046789;28;20633;-91
2021/07/05 04:55:21;;;;;;;1.80;1.00;;;16.10;99.90;;;;;;5048496;28;21152;-90
2021/07/05 04:57:50;;;;;;;2.70;1.20;;;16.10;99.90;;;;;;5051055;28;20649;-91
2021/07/05 05:00:21;;;;;;;2.10;1.43;;;16.20;99.90;;;;;;5049578;28;20621;-92
2021/07/05 05:02:56;;;;;;;3.20;1.73;;;16.20;99.90;;;;;;5054426;28;20710;-91
2021/07/05 05:05:25;;;;;;;2.30;1.63;;;16.20;99.90;;;;;;5050968;28;20684;-92
2021/07/05 05:07:52;;;;;;;2.23;1.50;;;16.30;99.90;;;;;;5050925;28;20684;-93
2021/07/05 05:10:21;;;;;;;1.60;1.50;;;16.40;99.90;;;;;;5053029;28;20610;-91
2021/07/05 05:12:54;;;;;;;2.20;1.80;;;16.50;99.90;;;;;;5054074;28;20610;-92
2021/07/05 05:15:23;;;;;;;1.77;1.67;;;16.50;99.90;;;;;;5050643;28;20631;-93
2021/07/05 05:17:51;;;;;;;3.93;1.70;;;16.60;99.90;;;;;;5049960;28;20642;-92
2021/07/05 05:20:20;;;;;;;2.03;1.87;;;16.60;99.90;;;;;;5054481;28;20637;-93
2021/07/05 05:22:54;;;;;;;2.00;1.57;;;16.70;99.90;;;;;;5053156;28;20633;-92
2021/07/05 05:25:27;;;;;;;1.77;1.33;;;16.80;99.90;;;;;;5055174;28;20621;-89
2021/07/05 05:27:57;;;;;;;2.03;1.83;;;16.80;99.90;;;;;;5051251;28;20764;-91
2021/07/05 05:30:25;;;;;;;3.67;1.77;;;16.90;99.90;;;;;;5053797;28;20624;-90
2021/07/05 05:32:56;;;;;;;2.53;2.10;;;17.10;99.90;;;;;;5055957;28;20626;-91
2021/07/05 05:35:28;;;;;;;3.00;1.63;;;17.20;99.90;;;;;;5053276;28;20613;-91
2021/07/05 05:38:00;;;;;;;8.97;1.60;;;17.20;99.90;;;;;;5047057;28;20659;-91
2021/07/05 05:40:31;;;;;;;4.40;1.63;;;17.30;99.90;;;;;;5057861;28;20626;-91
2021/07/05 05:42:58;;;;;;;3.00;1.20;;;17.50;99.90;;;;;;5060537;28;20716;-90
2021/07/05 05:45:27;;;;;;;3.20;1.70;;;17.70;99.90;;;;;;5052831;28;20615;-90
2021/07/05 05:47:54;;;;;;;1.43;1.33;;;17.60;99.90;;;;;;5068455;28;20737;-92
2021/07/05 05:50:22;;;;;;;2.50;1.43;;;17.60;99.90;;;;;;5066976;28;20630;-91
2021/07/05 05:52:51;;;;;;;1.87;1.37;;;17.60;99.90;;;;;;5069004;28;20625;-92
2021/07/05 05:55:18;;;;;;;1.57;1.47;;;17.60;99.90;;;;;;5067502;28;20604;-91
2021/07/05 05:57:45;;;;;;;6.63;1.47;;;17.60;99.90;;;;;;5061569;28;20667;-93
2021/07/05 06:00:17;;;;;;;2.10;1.47;;;17.60;99.90;;;;;;5051817;28;20665;-91
2021/07/05 06:02:46;;;;;;;3.77;1.57;;;17.60;99.90;;;;;;5056925;28;20628;-90
2021/07/05 06:05:13;;;;;;;4.63;2.40;;;17.60;99.90;;;;;;5069473;28;20648;-91
2021/07/05 06:07:47;;;;;;;1.70;1.27;;;17.60;99.90;;;;;;5058962;28;20688;-90
2021/07/05 06:10:18;;;;;;;1.40;1.30;;;17.60;99.90;;;;;;5052276;28;20763;-91
2021/07/05 06:12:46;;;;;;;3.80;1.63;;;17.60;99.90;;;;;;5050294;28;20625;-91
2021/07/05 06:15:13;;;;;;;3.63;1.40;;;17.60;99.90;;;;;;5049322;28;20632;-91
2021/07/05 06:17:41;;;;;;;3.50;1.23;;;17.60;99.90;;;;;;5048433;28;20669;-90
2021/07/05 06:20:11;;;;;;;1.93;1.83;;;17.60;99.90;;;;;;5050469;28;20606;-91
2021/07/05 06:22:46;;;;;;;4.23;1.67;;;17.60;99.90;;;;;;5050749;28;20621;-90
2021/07/05 06:25:16;;;;;;;1.70;1.40;;;17.70;99.90;;;;;;5047797;28;20633;-92
2021/07/05 06:27:46;;;;;;;3.10;1.33;;;17.80;99.90;;;;;;5051741;28;20743;-92
2021/07/05 06:30:14;;;;;;;1.83;1.10;;;17.80;99.90;;;;;;5051923;28;20613;-92
2021/07/05 06:32:43;;;;;;;2.70;1.27;;;17.80;99.90;;;;;;5048814;28;20624;-92
2021/07/05 06:35:12;;;;;;;5.40;1.47;;;17.80;99.90;;;;;;5050192;28;20641;-93
2021/07/05 06:37:39;;;;;;;2.70;1.70;;;17.80;99.90;;;;;;5046898;28;20653;-91
2021/07/05 06:40:09;;;;;;;2.30;1.10;;;17.80;99.90;;;;;;5050694;28;20696;-92
2021/07/05 06:42:38;;;;;;;2.00;1.40;;;17.90;99.90;;;;;;5046185;28;20621;-92
2021/07/05 06:45:07;;;;;;;2.80;1.47;;;17.90;99.90;;;;;;5050315;28;20729;-92
2021/07/05 06:47:34;;;;;;;2.30;1.33;;;17.90;99.90;;;;;;5052320;28;20680;-93
2021/07/05 06:50:00;;;;;;;1.93;1.20;;;17.90;99.90;;;;;;5055262;28;20636;-93
2021/07/05 06:52:33;;;;;;;2.80;1.33;;;18.00;99.90;;;;;;5048589;28;20632;-94
2021/07/05 06:55:01;;;;;;;1.10;1.00;;;18.20;99.90;;;;;;5051104;28;20821;-92
2021/07/05 06:57:33;;;;;;;7.70;3.57;;;18.10;99.90;;;;;;5052161;28;20656;-93
2021/07/05 07:00:05;;;;;;;3.70;1.40;;;18.20;99.90;;;;;;5047135;28;20665;-94
2021/07/05 07:02:33;;;;;;;2.87;1.57;;;18.20;99.90;;;;;;5049534;28;20679;-92
2021/07/05 07:05:00;;;;;;;1.33;1.00;;;18.30;99.90;;;;;;5051759;28;20621;-93
2021/07/05 07:07:27;;;;;;;2.03;1.30;;;18.30;99.90;;;;;;5049068;28;20666;-93
2021/07/05 07:09:54;;;;;;;4.63;1.50;;;18.40;99.90;;;;;;5048504;28;20991;-94
2021/07/05 07:12:20;;;;;;;1.97;1.50;;;18.50;99.90;;;;;;5053728;28;20602;-93
2021/07/05 07:14:47;;;;;;;2.13;1.10;;;18.60;99.90;;;;;;5047540;28;20725;-94
2021/07/05 07:17:22;;;;;;;1.60;1.20;;;18.70;99.90;;;;;;5052649;28;20625;-94
2021/07/05 07:19:49;;;;;;;2.53;1.00;;;18.70;99.90;;;;;;5051049;28;20672;-93
2021/07/05 07:22:19;;;;;;;3.80;1.13;;;18.80;99.90;;;;;;5052281;28;21584;-93
2021/07/05 07:24:48;;;;;;;1.30;0.90;;;18.70;99.90;;;;;;5051191;28;20656;-92
2021/07/05 07:27:15;;;;;;;1.60;1.10;;;18.70;99.90;;;;;;5051497;28;20657;-94
2021/07/05 07:29:42;;;;;;;0.87;0.87;;;18.80;99.90;;;;;;5051222;28;20642;-92
2021/07/05 07:32:11;;;;;;;3.03;1.10;;;18.90;99.90;;;;;;5045221;28;20667;-91
2021/07/05 07:34:39;;;;;;;3.00;1.10;;;18.80;99.90;;;;;;5046843;28;20633;-91
2021/07/05 07:37:13;;;;;;;1.50;1.37;;;18.80;99.90;;;;;;5046584;28;20628;-92
2021/07/05 07:39:41;;;;;;;1.80;1.37;;;18.70;99.90;;;;;;5050260;28;21244;-90
2021/07/05 07:42:09;;;;;;;1.30;1.07;;;18.80;99.90;;;;;;5048311;28;20676;-90
2021/07/05 07:44:36;;;;;;;2.00;1.27;;;18.90;99.90;;;;;;5051158;28;20630;-91
2021/07/05 07:47:04;;;;;;;1.30;1.20;;;19.00;99.90;;;;;;5055198;28;20662;-92
2021/07/05 07:49:33;;;;;;;0.93;0.90;;;19.10;99.90;;;;;;5052607;28;20630;-91
2021/07/05 07:52:02;;;;;;;1.70;1.43;;;19.20;99.90;;;;;;5043465;28;20642;-91
2021/07/05 07:54:29;;;;;;;1.40;1.30;;;19.20;99.90;;;;;;5042760;28;20647;-91
2021/07/05 07:56:56;;;;;;;1.20;1.10;;;19.40;99.90;;;;;;5044019;28;20638;-92
2021/07/05 07:59:24;;;;;;;1.20;1.10;;;19.40;99.90;;;;;;5044501;28;20987;-91
2021/07/05 08:01:51;;;;;;;1.93;1.10;;;19.50;99.90;;;;;;5047278;28;20672;-91
2021/07/05 08:04:18;;;;;;;1.20;1.10;;;19.30;99.90;;;;;;5051039;28;20945;-91
2021/07/05 08:06:45;;;;;;;5.47;0.90;;;19.40;99.90;;;;;;5050949;28;20637;-91
2021/07/05 08:09:14;;;;;;;1.70;1.40;;;19.50;99.90;;;;;;5048175;28;21157;-92
2021/07/05 08:11:48;;;;;;;1.20;1.07;;;19.60;99.90;;;;;;5043416;28;20657;-92
2021/07/05 08:14:15;;;;;;;1.30;1.20;;;19.50;99.90;;;;;;5046444;28;20653;-92
2021/07/05 08:16:42;;;;;;;1.40;1.30;;;19.60;99.90;;;;;;5049638;28;20637;-92
2021/07/05 08:19:09;;;;;;;1.90;1.57;;;19.50;99.90;;;;;;5044790;28;20622;-92
2021/07/05 08:21:41;;;;;;;2.03;0.70;;;19.50;99.90;;;;;;5049281;28;20673;-92
2021/07/05 08:24:08;;;;;;;1.80;1.33;;;19.50;99.90;;;;;;5049729;28;20998;-92
2021/07/05 08:26:42;;;;;;;1.27;1.10;;;19.50;99.90;;;;;;5048927;28;20710;-93
2021/07/05 08:29:10;;;;;;;1.60;1.50;;;19.30;99.90;;;;;;5051926;28;20626;-91
2021/07/05 08:31:38;;;;;;;1.33;1.10;;;19.30;99.90;;;;;;5049398;28;20649;-93
2021/07/05 08:34:07;;;;;;;2.03;1.00;;;19.40;99.90;;;;;;5042683;28;20633;-92
2021/07/05 08:36:40;;;;;;;2.67;1.40;;;19.30;99.90;;;;;;5049588;28;20615;-92
2021/07/05 08:39:07;;;;;;;1.43;1.30;;;19.40;99.90;;;;;;5046406;28;20660;-89
2021/07/05 08:41:35;;;;;;;7.17;1.50;;;19.30;99.90;;;;;;5045987;28;20716;-88
2021/07/05 08:44:04;;;;;;;3.73;1.70;;;19.10;99.90;;;;;;5044450;28;20642;-88
2021/07/05 08:46:34;;;;;;;5.13;1.50;;;19.10;99.90;;;;;;5044474;28;20632;-90
2021/07/05 08:49:02;;;;;;;1.57;1.30;;;19.10;99.90;;;;;;5041721;28;20758;-90
2021/07/05 08:51:29;;;;;;;1.33;1.23;;;19.00;99.90;;;;;;5044851;28;21012;-89
2021/07/05 08:53:56;;;;;;;0.90;0.90;;;18.90;99.90;;;;;;5043207;28;20641;-90
2021/07/05 08:56:23;;;;;;;2.07;1.27;;;18.90;99.90;;;;;;5043685;28;20641;-90
2021/07/05 08:58:52;;;;;;;1.63;1.20;;;19.00;99.90;;;;;;5044504;28;20626;-90
2021/07/05 09:01:22;;;;;;;1.33;1.10;;;19.10;99.90;;;;;;5043414;28;20645;-90
2021/07/05 09:03:51;;;;;;;1.60;1.20;;;18.90;99.90;;;;;;5046525;28;20626;-90
2021/07/05 09:06:19;;;;;;;1.70;1.43;;;19.00;99.90;;;;;;5048342;28;20617;-90
2021/07/05 09:09:07;;;;;;;1.70;0.83;;;19.10;99.90;;;;;;5041046;28;20662;-91
2021/07/05 09:11:41;;;;;;;6.83;1.47;;;19.20;99.90;;;;;;5048864;28;20717;-90
2021/07/05 09:14:13;;;;;;;2.73;1.30;;;19.20;99.90;;;;;;5048993;28;20618;-89
2021/07/05 09:16:42;;;;;;;1.33;1.10;;;19.30;99.90;;;;;;5047035;28;20651;-89
2021/07/05 09:19:18;;;;;;;1.23;1.13;;;19.20;99.90;;;;;;5049221;28;20596;-89
2021/07/05 09:21:47;;;;;;;1.37;1.27;;;19.00;99.90;;;;;;5050990;28;20718;-90
2021/07/05 09:24:14;;;;;;;1.57;1.00;;;19.00;99.90;;;;;;5049470;28;21072;-90
2021/07/05 09:26:43;;;;;;;1.90;1.07;;;19.00;99.90;;;;;;5047546;28;20635;-90
2021/07/05 09:29:21;;;;;;;3.00;1.50;;;19.00;99.90;;;;;;5044543;28;20661;-91
2021/07/05 09:31:54;;;;;;;1.20;1.10;;;19.10;99.90;;;;;;5050131;28;20668;-91
2021/07/05 09:34:23;;;;;;;3.23;0.97;;;19.40;99.90;;;;;;5054110;28;20652;-90
2021/07/05 09:36:55;;;;;;;1.80;1.10;;;19.40;99.90;;;;;;5051000;28;20648;-91
2021/07/05 09:39:25;;;;;;;1.57;1.07;;;19.10;99.90;;;;;;5051067;28;20622;-91
2021/07/05 09:41:58;;;;;;;1.57;1.00;;;19.00;99.90;;;;;;5076779;22;21607;-95
2021/07/05 09:44:40;;;;;;;1.20;1.00;;;18.80;99.90;;;;;;5078106;28;20641;-96
2021/07/05 09:47:17;;;;;;;1.90;1.17;;;18.60;99.90;;;;;;5077843;28;20653;-93
2021/07/05 09:49:47;;;;;;;1.50;1.10;;;18.60;99.90;;;;;;5078855;28;20628;-95
2021/07/05 09:52:25;;;;;;;1.50;1.10;;;18.50;99.90;;;;;;5076953;28;21183;-93
2021/07/05 09:54:55;;;;;;;4.30;1.23;;;18.30;99.90;;;;;;5061683;28;20671;-95
2021/07/05 09:57:44;;;;;;;2.00;1.33;;;18.40;99.90;;;;;;5067709;28;20665;-95
2021/07/05 10:00:20;;;;;;;1.20;1.10;;;18.40;99.90;;;;;;5072676;28;20636;-95
2021/07/05 10:03:05;;;;;;;1.10;1.00;;;18.60;99.90;;;;;;5078343;28;20659;-95
2021/07/05 10:05:34;;;;;;;1.73;0.93;;;18.60;99.90;;;;;;5068274;28;20709;-95
2021/07/05 10:08:04;;;;;;;1.60;1.10;;;18.70;99.90;;;;;;5115438;22;20734;-94
2021/07/05 10:10:37;;;;;;;1.83;0.80;;;18.50;99.90;;;;;;5075497;28;20640;-95
2021/07/05 10:13:11;;;;;;;1.07;0.90;;;18.60;99.90;;;;;;5084069;28;21237;-94
2021/07/05 10:15:48;;;;;;;1.33;0.93;;;18.50;99.90;;;;;;5078253;28;20632;-94
2021/07/05 10:18:21;;;;;;;1.20;1.10;;;18.50;99.90;;;;;;5076942;28;20665;-94
2021/07/05 10:20:54;;;;;;;1.00;0.77;;;18.50;99.90;;;;;;5075011;28;20693;-95
2021/07/05 10:23:21;;;;;;;1.67;1.20;;;18.60;99.90;;;;;;5057102;28;20636;-94
2021/07/05 10:25:52;;;;;;;2.47;1.00;;;18.40;99.90;;;;;;5069164;28;20665;-94
2021/07/05 10:28:20;;;;;;;2.03;1.93;;;18.20;99.90;;;;;;5057438;28;20696;-95
2021/07/05 10:30:55;;;;;;;3.67;0.87;;;18.00;99.90;;;;;;5062378;28;20684;-94
2021/07/05 10:33:30;;;;;;;1.10;1.00;;;17.90;99.90;;;;;;5062430;28;20628;-94
2021/07/05 10:35:59;;;;;;;1.30;1.20;;;18.00;99.90;;;;;;5060686;28;20737;-94
2021/07/05 10:38:35;;;;;;;0.90;0.90;;;18.00;99.90;;;;;;5052284;28;20688;-95
2021/07/05 10:41:07;;;;;;;1.20;1.10;;;18.00;99.90;;;;;;5049202;28;20620;-96
2021/07/05 10:43:49;;;;;;;0.97;0.80;;;18.10;99.90;;;;;;5059080;28;20633;-95
2021/07/05 10:46:44;;;;;;;3.60;0.90;;;18.20;99.90;;;;;;5045819;28;20627;-92
2021/07/05 10:49:50;;;;;;;0.90;0.90;;;18.10;99.90;;;;;;5053397;28;20795;-94
2021/07/05 10:52:20;;;;;;;2.67;0.90;;;18.10;99.90;;;;;;5055185;28;21195;-93
2021/07/05 10:54:49;;;;;;;1.67;1.17;;;18.10;99.90;;;;;;5050590;28;20749;-94
2021/07/05 10:57:20;;;;;;;1.10;1.00;;;18.30;99.90;;;;;;5050167;28;20653;-93
2021/07/05 10:59:48;;;;;;;2.20;0.97;;;18.30;99.90;;;;;;5049773;28;20657;-94
2021/07/05 11:02:47;;;;;;;1.10;1.00;;;18.50;99.90;;;;;;5052996;28;20647;-94
2021/07/05 11:05:42;;;;;;;2.87;1.47;;;18.50;99.90;;;;;;5052669;28;20705;-93
2021/07/05 11:08:18;;;;;;;2.13;1.20;;;18.60;99.90;;;;;;5048101;28;20661;-93
2021/07/05 11:10:48;;;;;;;0.90;0.80;;;18.50;99.90;;;;;;5050763;28;20646;-92
2021/07/05 11:13:18;;;;;;;1.83;1.00;;;18.40;99.90;;;;;;5034729;28;20643;-92
2021/07/05 11:15:53;;;;;;;0.90;0.90;;;18.60;99.90;;;;;;5051295;28;20639;-93
2021/07/05 11:18:58;;;;;;;0.90;0.90;;;18.60;99.90;;;;;;5047292;28;20760;-93
2021/07/05 11:22:00;;;;;;;1.63;1.20;;;18.70;99.90;;;;;;5050401;28;20634;-92
2021/07/05 11:24:46;;;;;;;2.20;0.90;;;18.90;99.90;;;;;;5051373;28;20709;-93
2021/07/05 11:27:46;;;;;;;2.83;1.23;;;19.00;99.90;;;;;;5050704;28;21203;-93
2021/07/05 11:30:34;;;;;;;1.20;1.10;;;19.20;99.90;;;;;;5055431;28;20656;-92
2021/07/05 11:33:27;;;;;;;1.17;0.93;;;19.40;99.90;;;;;;5055887;28;20593;-93
2021/07/05 11:36:00;;;;;;;1.33;0.80;;;19.80;99.90;;;;;;5055080;28;20730;-93
2021/07/05 11:38:43;;;;;;;1.90;0.90;;;19.70;99.90;;;;;;5052371;28;20653;-93
2021/07/05 11:41:29;;;;;;;1.10;1.00;;;19.70;99.90;;;;;;5046320;28;20721;-93
2021/07/05 11:44:00;;;;;;;1.77;1.10;;;19.60;99.90;;;;;;5051369;28;20631;-93
2021/07/05 11:46:48;;;;;;;1.27;1.00;;;19.50;99.90;;;;;;5056382;28;20728;-93
2021/07/05 11:49:18;;;;;;;1.90;1.10;;;19.40;99.90;;;;;;5044765;28;20677;-93
2021/07/05 11:51:49;;;;;;;2.40;1.20;;;19.20;99.90;;;;;;5047861;28;20677;-92
2021/07/05 11:54:21;;;;;;;2.40;1.10;;;18.90;99.90;;;;;;5046940;28;20619;-93
2021/07/05 11:56:50;;;;;;;3.03;1.10;;;19.00;99.90;;;;;;5050633;28;21171;-93
2021/07/05 11:59:22;;;;;;;1.10;0.93;;;19.10;99.90;;;;;;5046013;28;20672;-93
2021/07/05 12:01:56;;;;;;;2.00;0.80;;;19.00;99.90;;;;;;5043922;28;20748;-94
2021/07/05 12:04:33;;;;;;;3.50;1.70;;;19.10;99.90;;;;;;5054964;28;20578;-94
2021/07/05 12:07:01;;;;;;;2.73;1.13;;;19.20;99.90;;;;;;5045050;28;20639;-94
2021/07/05 12:09:31;;;;;;;2.17;1.87;;;19.50;99.90;;;;;;5048543;28;20752;-93
2021/07/05 12:12:08;;;;;;;2.20;1.43;;;19.50;99.90;;;;;;5047545;28;21296;-93
2021/07/05 12:14:37;;;;;;;5.90;1.30;;;19.40;99.90;;;;;;5045221;28;20912;-93
2021/07/05 12:17:06;;;;;;;1.30;1.20;;;19.40;99.90;;;;;;5043968;28;20817;-93
2021/07/05 12:19:35;;;;;;;2.20;1.30;;;19.50;99.90;;;;;;5049020;28;20642;-93
2021/07/05 12:22:05;;;;;;;3.43;1.10;;;19.60;99.90;;;;;;5055999;28;20734;-92
2021/07/05 12:24:36;;;;;;;2.03;1.67;;;19.80;99.90;;;;;;5047502;28;21234;-94
2021/07/05 12:27:15;;;;;;;1.97;1.77;;;19.80;99.90;;;;;;5049734;28;21177;-91
2021/07/05 12:29:45;;;;;;;6.40;2.37;;;19.60;99.90;;;;;;5054454;28;21258;-92
2021/07/05 12:32:14;;;;;;;4.40;1.70;;;19.70;99.90;;;;;;5050444;28;20656;-92
2021/07/05 12:34:51;;;;;;;2.70;1.80;;;19.70;99.90;;;;;;5049278;28;20630;-92
2021/07/05 12:37:42;;;;;;;2.50;2.30;;;19.70;99.90;;;;;;5057852;28;20622;-93
2021/07/05 12:40:21;;;;;;;3.30;2.17;;;19.90;99.90;;;;;;5050721;28;20653;-92
2021/07/05 12:42:50;;;;;;;3.07;1.90;;;20.00;99.90;;;;;;5052428;28;20705;-91
2021/07/05 12:45:26;;;;;;;1.53;1.43;;;20.30;99.90;;;;;;5057232;28;20661;-93
2021/07/05 12:48:20;;;;;;;1.80;1.50;;;20.80;99.90;;;;;;5053261;28;20674;-94
2021/07/05 12:51:06;;;;;;;2.67;1.43;;;21.10;99.90;;;;;;5046001;28;21271;-92
2021/07/05 12:53:42;;;;;;;2.10;1.43;;;21.40;99.90;;;;;;5053918;28;20606;-93
2021/07/05 12:56:21;;;;;;;1.93;1.50;;;21.70;99.90;;;;;;5061197;28;21180;-95
2021/07/05 12:58:52;;;;;;;2.40;1.33;;;21.90;99.90;;;;;;5060082;28;20684;-94
2021/07/05 13:01:37;;;;;;;4.30;1.60;;;22.10;99.90;;;;;;5060742;28;20809;-95
2021/07/05 13:04:06;;;;;;;1.70;1.50;;;22.50;99.90;;;;;;5060528;28;20630;-93
2021/07/05 13:06:40;;;;;;;2.00;1.40;;;22.40;99.90;;;;;;5051534;28;20617;-93